sensor_id;sensor_type;location;lat;lon;timestamp;P1;durP1;ratioP1;P2;durP2;ratioP2
75926;SDS011;64605;48.296;16.416;2022-10-31T00:00:21;54.03;;;30.23;;
75926;SDS011;64605;48.296;16.416;2022-10-31T00:02:47;55.42;;;31.17;;
75926;SDS011;64605;48.296;16.416;2022-10-31T00:05:13;55.58;;;31.23;;
75926;SDS011;64605;48.296;16.416;2022-10-31T00:07:38;47.20;;;29.13;;
75926;SDS011;64605;48.296;16.416;2022-10-31T00:10:04;55.70;;;32.22;;
75926;SDS011;64605;48.296;16.416;2022-10-31T00:12:30;48.83;;;29.65;;
75926;SDS011;64605;48.296;16.416;2022-10-31T00:14:56;47.53;;;29.20;;
75926;SDS011;64605;48.296;16.416;2022-10-31T00:17:21;55.60;;;31.52;;
75926;SDS011;64605;48.296;16.416;2022-10-31T00:19:47;45.55;;;28.17;;
75926;SDS011;64605;48.296;16.416;2022-10-31T00:22:13;50.13;;;28.40;;
75926;SDS011;64605;48.296;16.416;2022-10-31T00:24:38;48.33;;;27.77;;
75926;SDS011;64605;48.296;16.416;2022-10-31T00:27:04;47.42;;;28.55;;
75926;SDS011;64605;48.296;16.416;2022-10-31T00:29:30;47.47;;;28.35;;
75926;SDS011;64605;48.296;16.416;2022-10-31T00:31:55;55.97;;;30.00;;
75926;SDS011;64605;48.296;16.416;2022-10-31T00:34:21;55.65;;;31.33;;
75926;SDS011;64605;48.296;16.416;2022-10-31T00:36:46;54.70;;;31.13;;
75926;SDS011;64605;48.296;16.416;2022-10-31T00:39:12;52.97;;;28.25;;
75926;SDS011;64605;48.296;16.416;2022-10-31T00:41:38;47.03;;;28.42;;
75926;SDS011;64605;48.296;16.416;2022-10-31T00:44:03;54.70;;;30.15;;
75926;SDS011;64605;48.296;16.416;2022-10-31T00:46:29;50.67;;;28.35;;
75926;SDS011;64605;48.296;16.416;2022-10-31T00:48:55;51.42;;;29.15;;
75926;SDS011;64605;48.296;16.416;2022-10-31T00:51:20;50.33;;;28.33;;
75926;SDS011;64605;48.296;16.416;2022-10-31T00:53:46;49.95;;;27.48;;
75926;SDS011;64605;48.296;16.416;2022-10-31T00:56:11;41.88;;;25.52;;
75926;SDS011;64605;48.296;16.416;2022-10-31T00:58:37;50.63;;;27.50;;
75926;SDS011;64605;48.296;16.416;2022-10-31T01:01:03;47.00;;;27.52;;
75926;SDS011;64605;48.296;16.416;2022-10-31T01:03:30;48.38;;;27.95;;
75926;SDS011;64605;48.296;16.416;2022-10-31T01:08:23;50.72;;;28.23;;
75926;SDS011;64605;48.296;16.416;2022-10-31T01:10:57;47.08;;;27.45;;
75926;SDS011;64605;48.296;16.416;2022-10-31T01:13:27;50.92;;;27.10;;
75926;SDS011;64605;48.296;16.416;2022-10-31T01:15:54;41.92;;;26.38;;
75926;SDS011;64605;48.296;16.416;2022-10-31T01:18:20;56.05;;;29.92;;
75926;SDS011;64605;48.296;16.416;2022-10-31T01:20:46;46.55;;;26.73;;
75926;SDS011;64605;48.296;16.416;2022-10-31T01:23:12;45.67;;;26.48;;
75926;SDS011;64605;48.296;16.416;2022-10-31T01:25:37;54.85;;;28.98;;
75926;SDS011;64605;48.296;16.416;2022-10-31T01:28:03;50.13;;;27.60;;
75926;SDS011;64605;48.296;16.416;2022-10-31T01:30:29;44.83;;;25.85;;
75926;SDS011;64605;48.296;16.416;2022-10-31T01:32:54;50.72;;;27.83;;
75926;SDS011;64605;48.296;16.416;2022-10-31T01:35:20;46.67;;;26.02;;
75926;SDS011;64605;48.296;16.416;2022-10-31T01:37:45;45.47;;;27.10;;
75926;SDS011;64605;48.296;16.416;2022-10-31T01:40:11;48.45;;;27.98;;
75926;SDS011;64605;48.296;16.416;2022-10-31T01:42:37;40.88;;;25.23;;
75926;SDS011;64605;48.296;16.416;2022-10-31T01:45:02;44.25;;;26.50;;
75926;SDS011;64605;48.296;16.416;2022-10-31T01:47:33;46.10;;;27.40;;
75926;SDS011;64605;48.296;16.416;2022-10-31T01:50:12;41.17;;;25.15;;
75926;SDS011;64605;48.296;16.416;2022-10-31T01:53:00;50.03;;;28.30;;
75926;SDS011;64605;48.296;16.416;2022-10-31T01:55:32;42.15;;;25.80;;
75926;SDS011;64605;48.296;16.416;2022-10-31T01:58:02;46.20;;;26.80;;
75926;SDS011;64605;48.296;16.416;2022-10-31T02:00:32;49.87;;;27.43;;
75926;SDS011;64605;48.296;16.416;2022-10-31T02:02:58;51.63;;;27.63;;
75926;SDS011;64605;48.296;16.416;2022-10-31T02:05:24;41.22;;;25.38;;
75926;SDS011;64605;48.296;16.416;2022-10-31T02:10:22;43.20;;;25.48;;
75926;SDS011;64605;48.296;16.416;2022-10-31T02:12:48;45.33;;;26.85;;
75926;SDS011;64605;48.296;16.416;2022-10-31T02:15:17;44.17;;;26.65;;
75926;SDS011;64605;48.296;16.416;2022-10-31T02:17:43;41.05;;;26.30;;
75926;SDS011;64605;48.296;16.416;2022-10-31T02:20:21;43.63;;;25.83;;
75926;SDS011;64605;48.296;16.416;2022-10-31T02:31:27;43.00;;;25.05;;
75926;SDS011;64605;48.296;16.416;2022-10-31T02:34:06;40.88;;;24.33;;
75926;SDS011;64605;48.296;16.416;2022-10-31T02:36:42;50.70;;;27.85;;
75926;SDS011;64605;48.296;16.416;2022-10-31T02:42:01;43.70;;;26.67;;
75926;SDS011;64605;48.296;16.416;2022-10-31T02:47:27;42.10;;;24.90;;
75926;SDS011;64605;48.296;16.416;2022-10-31T02:50:02;42.75;;;23.98;;
75926;SDS011;64605;48.296;16.416;2022-10-31T02:52:39;29.52;;;19.35;;
75926;SDS011;64605;48.296;16.416;2022-10-31T02:55:11;21.13;;;15.18;;
75926;SDS011;64605;48.296;16.416;2022-10-31T02:57:49;21.08;;;14.52;;
75926;SDS011;64605;48.296;16.416;2022-10-31T03:00:17;17.85;;;12.95;;
75926;SDS011;64605;48.296;16.416;2022-10-31T03:16:00;46.47;;;27.00;;
75926;SDS011;64605;48.296;16.416;2022-10-31T03:18:34;42.28;;;25.48;;
75926;SDS011;64605;48.296;16.416;2022-10-31T03:21:14;43.22;;;25.75;;
75926;SDS011;64605;48.296;16.416;2022-10-31T03:23:46;42.38;;;26.33;;
75926;SDS011;64605;48.296;16.416;2022-10-31T03:26:15;46.85;;;27.10;;
75926;SDS011;64605;48.296;16.416;2022-10-31T03:28:47;41.13;;;25.58;;
75926;SDS011;64605;48.296;16.416;2022-10-31T03:31:20;48.58;;;28.30;;
75926;SDS011;64605;48.296;16.416;2022-10-31T03:33:50;40.80;;;25.77;;
75926;SDS011;64605;48.296;16.416;2022-10-31T03:36:17;43.85;;;24.92;;
75926;SDS011;64605;48.296;16.416;2022-10-31T03:38:44;27.35;;;19.83;;
75926;SDS011;64605;48.296;16.416;2022-10-31T03:41:13;28.80;;;20.15;;
75926;SDS011;64605;48.296;16.416;2022-10-31T03:43:50;30.30;;;20.45;;
75926;SDS011;64605;48.296;16.416;2022-10-31T03:46:26;32.15;;;20.70;;
75926;SDS011;64605;48.296;16.416;2022-10-31T03:48:52;29.77;;;20.42;;
75926;SDS011;64605;48.296;16.416;2022-10-31T03:51:26;31.52;;;20.88;;
75926;SDS011;64605;48.296;16.416;2022-10-31T03:56:44;37.60;;;23.38;;
75926;SDS011;64605;48.296;16.416;2022-10-31T03:59:44;35.35;;;21.30;;
75926;SDS011;64605;48.296;16.416;2022-10-31T04:02:15;35.42;;;20.40;;
75926;SDS011;64605;48.296;16.416;2022-10-31T04:04:44;30.65;;;18.25;;
75926;SDS011;64605;48.296;16.416;2022-10-31T04:07:11;24.67;;;17.48;;
75926;SDS011;64605;48.296;16.416;2022-10-31T04:09:39;26.23;;;17.30;;
75926;SDS011;64605;48.296;16.416;2022-10-31T04:12:11;24.60;;;17.02;;
75926;SDS011;64605;48.296;16.416;2022-10-31T04:14:40;28.27;;;18.17;;
75926;SDS011;64605;48.296;16.416;2022-10-31T04:17:10;22.67;;;16.42;;
75926;SDS011;64605;48.296;16.416;2022-10-31T04:19:38;21.85;;;15.55;;
75926;SDS011;64605;48.296;16.416;2022-10-31T04:22:04;22.27;;;15.98;;
75926;SDS011;64605;48.296;16.416;2022-10-31T04:24:30;22.73;;;15.23;;
75926;SDS011;64605;48.296;16.416;2022-10-31T04:26:55;22.67;;;15.48;;
75926;SDS011;64605;48.296;16.416;2022-10-31T04:29:21;23.15;;;16.70;;
75926;SDS011;64605;48.296;16.416;2022-10-31T04:31:47;21.02;;;14.63;;
75926;SDS011;64605;48.296;16.416;2022-10-31T04:34:12;21.85;;;15.63;;
75926;SDS011;64605;48.296;16.416;2022-10-31T04:36:38;21.58;;;15.48;;
75926;SDS011;64605;48.296;16.416;2022-10-31T04:39:03;24.08;;;16.40;;
75926;SDS011;64605;48.296;16.416;2022-10-31T04:41:29;21.75;;;14.02;;
75926;SDS011;64605;48.296;16.416;2022-10-31T04:43:55;22.60;;;15.48;;
75926;SDS011;64605;48.296;16.416;2022-10-31T04:46:20;21.40;;;14.13;;
75926;SDS011;64605;48.296;16.416;2022-10-31T04:48:46;23.10;;;15.30;;
75926;SDS011;64605;48.296;16.416;2022-10-31T04:51:12;19.02;;;13.07;;
75926;SDS011;64605;48.296;16.416;2022-10-31T04:53:37;17.95;;;12.93;;
75926;SDS011;64605;48.296;16.416;2022-10-31T04:56:03;20.52;;;14.18;;
75926;SDS011;64605;48.296;16.416;2022-10-31T04:58:29;18.25;;;13.30;;
75926;SDS011;64605;48.296;16.416;2022-10-31T05:00:55;19.75;;;13.27;;
75926;SDS011;64605;48.296;16.416;2022-10-31T05:03:21;14.93;;;10.70;;
75926;SDS011;64605;48.296;16.416;2022-10-31T05:05:47;12.05;;;8.57;;
75926;SDS011;64605;48.296;16.416;2022-10-31T05:08:13;8.30;;;7.00;;
75926;SDS011;64605;48.296;16.416;2022-10-31T05:10:39;9.80;;;6.93;;
75926;SDS011;64605;48.296;16.416;2022-10-31T05:13:05;8.02;;;6.15;;
75926;SDS011;64605;48.296;16.416;2022-10-31T05:15:31;8.05;;;5.75;;
75926;SDS011;64605;48.296;16.416;2022-10-31T05:17:56;7.82;;;6.25;;
75926;SDS011;64605;48.296;16.416;2022-10-31T05:20:23;9.82;;;6.25;;
75926;SDS011;64605;48.296;16.416;2022-10-31T05:22:51;6.07;;;4.90;;
75926;SDS011;64605;48.296;16.416;2022-10-31T05:25:19;6.53;;;5.00;;
75926;SDS011;64605;48.296;16.416;2022-10-31T05:27:46;6.75;;;5.35;;
75926;SDS011;64605;48.296;16.416;2022-10-31T05:30:14;6.25;;;4.68;;
75926;SDS011;64605;48.296;16.416;2022-10-31T05:32:42;6.15;;;4.68;;
75926;SDS011;64605;48.296;16.416;2022-10-31T05:35:10;7.05;;;5.13;;
75926;SDS011;64605;48.296;16.416;2022-10-31T05:37:37;5.85;;;4.90;;
75926;SDS011;64605;48.296;16.416;2022-10-31T05:40:04;7.82;;;4.82;;
75926;SDS011;64605;48.296;16.416;2022-10-31T05:42:32;5.53;;;4.30;;
75926;SDS011;64605;48.296;16.416;2022-10-31T05:44:57;6.82;;;4.40;;
75926;SDS011;64605;48.296;16.416;2022-10-31T05:47:23;5.78;;;4.45;;
75926;SDS011;64605;48.296;16.416;2022-10-31T05:49:49;7.15;;;5.43;;
75926;SDS011;64605;48.296;16.416;2022-10-31T05:52:15;8.45;;;5.15;;
75926;SDS011;64605;48.296;16.416;2022-10-31T05:54:41;5.88;;;4.57;;
75926;SDS011;64605;48.296;16.416;2022-10-31T05:57:06;6.05;;;4.43;;
75926;SDS011;64605;48.296;16.416;2022-10-31T05:59:32;5.43;;;4.55;;
75926;SDS011;64605;48.296;16.416;2022-10-31T06:01:58;7.30;;;4.60;;
75926;SDS011;64605;48.296;16.416;2022-10-31T06:04:23;7.32;;;4.50;;
75926;SDS011;64605;48.296;16.416;2022-10-31T06:06:49;6.22;;;4.45;;
75926;SDS011;64605;48.296;16.416;2022-10-31T06:09:14;5.93;;;4.45;;
75926;SDS011;64605;48.296;16.416;2022-10-31T06:11:40;6.30;;;4.50;;
75926;SDS011;64605;48.296;16.416;2022-10-31T06:14:06;7.20;;;4.97;;
75926;SDS011;64605;48.296;16.416;2022-10-31T06:16:31;12.15;;;5.55;;
75926;SDS011;64605;48.296;16.416;2022-10-31T06:18:57;6.90;;;5.20;;
75926;SDS011;64605;48.296;16.416;2022-10-31T06:21:23;8.23;;;5.15;;
75926;SDS011;64605;48.296;16.416;2022-10-31T06:23:49;6.35;;;4.78;;
75926;SDS011;64605;48.296;16.416;2022-10-31T06:26:15;8.07;;;5.47;;
75926;SDS011;64605;48.296;16.416;2022-10-31T06:28:40;6.05;;;4.72;;
75926;SDS011;64605;48.296;16.416;2022-10-31T06:31:06;6.72;;;4.63;;
75926;SDS011;64605;48.296;16.416;2022-10-31T06:33:32;5.35;;;4.75;;
75926;SDS011;64605;48.296;16.416;2022-10-31T06:35:58;7.95;;;6.05;;
75926;SDS011;64605;48.296;16.416;2022-10-31T06:38:27;12.48;;;8.55;;
75926;SDS011;64605;48.296;16.416;2022-10-31T06:40:53;9.38;;;6.13;;
75926;SDS011;64605;48.296;16.416;2022-10-31T06:43:22;8.45;;;5.95;;
75926;SDS011;64605;48.296;16.416;2022-10-31T06:45:48;10.23;;;5.90;;
75926;SDS011;64605;48.296;16.416;2022-10-31T06:48:13;7.97;;;5.88;;
75926;SDS011;64605;48.296;16.416;2022-10-31T06:50:39;9.30;;;6.10;;
75926;SDS011;64605;48.296;16.416;2022-10-31T06:53:05;9.07;;;6.45;;
75926;SDS011;64605;48.296;16.416;2022-10-31T06:55:31;11.00;;;6.05;;
75926;SDS011;64605;48.296;16.416;2022-10-31T06:58:00;9.00;;;6.50;;
75926;SDS011;64605;48.296;16.416;2022-10-31T07:00:26;8.15;;;5.88;;
75926;SDS011;64605;48.296;16.416;2022-10-31T07:03:00;9.55;;;6.07;;
75926;SDS011;64605;48.296;16.416;2022-10-31T07:05:31;11.95;;;7.13;;
75926;SDS011;64605;48.296;16.416;2022-10-31T07:08:01;9.57;;;7.00;;
75926;SDS011;64605;48.296;16.416;2022-10-31T07:10:29;11.32;;;6.10;;
75926;SDS011;64605;48.296;16.416;2022-10-31T07:12:57;10.45;;;7.07;;
75926;SDS011;64605;48.296;16.416;2022-10-31T07:15:24;10.75;;;7.72;;
75926;SDS011;64605;48.296;16.416;2022-10-31T07:17:51;10.15;;;7.10;;
75926;SDS011;64605;48.296;16.416;2022-10-31T07:20:17;9.80;;;6.85;;
75926;SDS011;64605;48.296;16.416;2022-10-31T07:22:43;12.85;;;7.97;;
75926;SDS011;64605;48.296;16.416;2022-10-31T07:25:09;9.98;;;7.57;;
75926;SDS011;64605;48.296;16.416;2022-10-31T07:27:39;15.50;;;8.23;;
75926;SDS011;64605;48.296;16.416;2022-10-31T07:30:06;11.38;;;7.65;;
75926;SDS011;64605;48.296;16.416;2022-10-31T07:35:04;9.43;;;7.60;;
75926;SDS011;64605;48.296;16.416;2022-10-31T07:37:31;11.88;;;7.43;;
75926;SDS011;64605;48.296;16.416;2022-10-31T07:39:56;10.73;;;7.57;;
75926;SDS011;64605;48.296;16.416;2022-10-31T07:42:22;11.80;;;8.32;;
75926;SDS011;64605;48.296;16.416;2022-10-31T07:44:47;14.30;;;8.65;;
75926;SDS011;64605;48.296;16.416;2022-10-31T07:47:13;12.95;;;8.18;;
75926;SDS011;64605;48.296;16.416;2022-10-31T07:49:39;16.55;;;9.73;;
75926;SDS011;64605;48.296;16.416;2022-10-31T07:52:04;12.52;;;8.77;;
75926;SDS011;64605;48.296;16.416;2022-10-31T07:54:30;13.68;;;9.35;;
75926;SDS011;64605;48.296;16.416;2022-10-31T07:56:55;17.20;;;10.38;;
75926;SDS011;64605;48.296;16.416;2022-10-31T07:59:21;14.98;;;10.25;;
75926;SDS011;64605;48.296;16.416;2022-10-31T08:01:47;16.92;;;10.48;;
75926;SDS011;64605;48.296;16.416;2022-10-31T08:04:12;15.68;;;10.15;;
75926;SDS011;64605;48.296;16.416;2022-10-31T08:06:38;16.98;;;11.70;;
75926;SDS011;64605;48.296;16.416;2022-10-31T08:09:03;20.13;;;11.02;;
75926;SDS011;64605;48.296;16.416;2022-10-31T08:11:29;18.00;;;11.82;;
75926;SDS011;64605;48.296;16.416;2022-10-31T08:13:55;15.75;;;10.50;;
75926;SDS011;64605;48.296;16.416;2022-10-31T08:16:20;17.88;;;11.60;;
75926;SDS011;64605;48.296;16.416;2022-10-31T08:18:46;16.75;;;11.63;;
75926;SDS011;64605;48.296;16.416;2022-10-31T08:21:12;16.95;;;12.15;;
75926;SDS011;64605;48.296;16.416;2022-10-31T08:23:38;15.63;;;11.00;;
75926;SDS011;64605;48.296;16.416;2022-10-31T08:26:03;17.00;;;11.50;;
75926;SDS011;64605;48.296;16.416;2022-10-31T08:28:31;14.63;;;10.15;;
75926;SDS011;64605;48.296;16.416;2022-10-31T08:30:57;16.92;;;10.15;;
75926;SDS011;64605;48.296;16.416;2022-10-31T08:33:23;17.23;;;11.65;;
75926;SDS011;64605;48.296;16.416;2022-10-31T08:35:49;15.38;;;11.43;;
75926;SDS011;64605;48.296;16.416;2022-10-31T08:38:15;15.93;;;10.90;;
75926;SDS011;64605;48.296;16.416;2022-10-31T08:40:41;16.35;;;11.13;;
75926;SDS011;64605;48.296;16.416;2022-10-31T08:43:13;17.27;;;11.57;;
75926;SDS011;64605;48.296;16.416;2022-10-31T08:45:40;18.63;;;11.27;;
75926;SDS011;64605;48.296;16.416;2022-10-31T08:48:08;15.98;;;10.48;;
75926;SDS011;64605;48.296;16.416;2022-10-31T08:50:35;16.83;;;12.07;;
75926;SDS011;64605;48.296;16.416;2022-10-31T08:53:05;17.88;;;12.75;;
75926;SDS011;64605;48.296;16.416;2022-10-31T08:55:37;21.45;;;16.45;;
75926;SDS011;64605;48.296;16.416;2022-10-31T08:58:04;31.08;;;25.70;;
75926;SDS011;64605;48.296;16.416;2022-10-31T09:00:32;19.23;;;13.27;;
75926;SDS011;64605;48.296;16.416;2022-10-31T09:03:00;20.30;;;12.50;;
75926;SDS011;64605;48.296;16.416;2022-10-31T09:05:27;16.80;;;11.68;;
75926;SDS011;64605;48.296;16.416;2022-10-31T09:07:56;18.33;;;12.30;;
75926;SDS011;64605;48.296;16.416;2022-10-31T09:10:23;17.38;;;11.80;;
75926;SDS011;64605;48.296;16.416;2022-10-31T09:12:59;21.30;;;12.82;;
75926;SDS011;64605;48.296;16.416;2022-10-31T09:15:26;26.60;;;17.95;;
75926;SDS011;64605;48.296;16.416;2022-10-31T09:17:53;19.33;;;12.10;;
75926;SDS011;64605;48.296;16.416;2022-10-31T09:20:19;16.88;;;11.43;;
75926;SDS011;64605;48.296;16.416;2022-10-31T09:22:45;17.83;;;12.73;;
75926;SDS011;64605;48.296;16.416;2022-10-31T09:25:11;15.73;;;11.05;;
75926;SDS011;64605;48.296;16.416;2022-10-31T09:27:37;16.48;;;11.77;;
75926;SDS011;64605;48.296;16.416;2022-10-31T09:30:03;17.33;;;11.98;;
75926;SDS011;64605;48.296;16.416;2022-10-31T09:32:29;17.65;;;11.20;;
75926;SDS011;64605;48.296;16.416;2022-10-31T09:34:54;21.60;;;12.63;;
75926;SDS011;64605;48.296;16.416;2022-10-31T09:37:20;15.38;;;10.75;;
75926;SDS011;64605;48.296;16.416;2022-10-31T09:39:46;16.13;;;11.45;;
75926;SDS011;64605;48.296;16.416;2022-10-31T09:45:16;17.38;;;11.13;;
75926;SDS011;64605;48.296;16.416;2022-10-31T09:50:52;18.65;;;13.82;;
75926;SDS011;64605;48.296;16.416;2022-10-31T09:56:12;20.35;;;12.80;;
75926;SDS011;64605;48.296;16.416;2022-10-31T09:58:41;19.25;;;13.32;;
75926;SDS011;64605;48.296;16.416;2022-10-31T10:01:14;23.52;;;14.82;;
75926;SDS011;64605;48.296;16.416;2022-10-31T10:03:57;22.35;;;14.10;;
75926;SDS011;64605;48.296;16.416;2022-10-31T10:06:28;26.60;;;15.95;;
75926;SDS011;64605;48.296;16.416;2022-10-31T10:08:57;25.50;;;15.65;;
75926;SDS011;64605;48.296;16.416;2022-10-31T10:11:35;22.17;;;15.05;;
75926;SDS011;64605;48.296;16.416;2022-10-31T10:30:23;20.58;;;15.40;;
75926;SDS011;64605;48.296;16.416;2022-10-31T10:32:53;24.48;;;16.05;;
75926;SDS011;64605;48.296;16.416;2022-10-31T10:35:36;21.10;;;15.50;;
75926;SDS011;64605;48.296;16.416;2022-10-31T10:40:41;21.92;;;15.43;;
75926;SDS011;64605;48.296;16.416;2022-10-31T10:43:24;26.50;;;17.30;;
75926;SDS011;64605;48.296;16.416;2022-10-31T11:00:00;26.17;;;17.02;;
75926;SDS011;64605;48.296;16.416;2022-10-31T11:02:42;30.63;;;20.13;;
75926;SDS011;64605;48.296;16.416;2022-10-31T11:05:13;30.45;;;19.98;;
75926;SDS011;64605;48.296;16.416;2022-10-31T11:07:59;29.45;;;20.38;;
75926;SDS011;64605;48.296;16.416;2022-10-31T11:10:25;30.80;;;21.40;;
75926;SDS011;64605;48.296;16.416;2022-10-31T11:13:05;32.25;;;21.45;;
75926;SDS011;64605;48.296;16.416;2022-10-31T11:15:37;33.10;;;21.65;;
75926;SDS011;64605;48.296;16.416;2022-10-31T11:18:19;28.08;;;20.83;;
75926;SDS011;64605;48.296;16.416;2022-10-31T11:20:51;35.63;;;23.75;;
75926;SDS011;64605;48.296;16.416;2022-10-31T11:23:20;31.25;;;21.83;;
75926;SDS011;64605;48.296;16.416;2022-10-31T11:25:49;37.72;;;25.80;;
75926;SDS011;64605;48.296;16.416;2022-10-31T11:28:19;35.10;;;25.38;;
75926;SDS011;64605;48.296;16.416;2022-10-31T11:30:46;35.53;;;24.42;;
75926;SDS011;64605;48.296;16.416;2022-10-31T11:33:16;35.97;;;24.33;;
75926;SDS011;64605;48.296;16.416;2022-10-31T11:35:42;40.42;;;25.80;;
75926;SDS011;64605;48.296;16.416;2022-10-31T11:38:12;35.58;;;26.23;;
75926;SDS011;64605;48.296;16.416;2022-10-31T11:43:49;36.55;;;25.52;;
75926;SDS011;64605;48.296;16.416;2022-10-31T11:46:41;43.08;;;27.90;;
75926;SDS011;64605;48.296;16.416;2022-10-31T11:49:15;39.60;;;28.10;;
75926;SDS011;64605;48.296;16.416;2022-10-31T11:51:41;41.05;;;29.08;;
75926;SDS011;64605;48.296;16.416;2022-10-31T11:54:16;39.08;;;28.60;;
75926;SDS011;64605;48.296;16.416;2022-10-31T11:56:54;41.05;;;28.90;;
75926;SDS011;64605;48.296;16.416;2022-10-31T11:59:22;42.70;;;28.77;;
75926;SDS011;64605;48.296;16.416;2022-10-31T12:01:56;44.53;;;29.38;;
75926;SDS011;64605;48.296;16.416;2022-10-31T12:04:34;43.58;;;28.50;;
75926;SDS011;64605;48.296;16.416;2022-10-31T12:07:10;45.45;;;29.25;;
75926;SDS011;64605;48.296;16.416;2022-10-31T12:09:36;42.40;;;28.45;;
75926;SDS011;64605;48.296;16.416;2022-10-31T12:20:23;45.47;;;31.33;;
75926;SDS011;64605;48.296;16.416;2022-10-31T12:23:16;45.83;;;30.80;;
75926;SDS011;64605;48.296;16.416;2022-10-31T12:26:06;42.72;;;29.65;;
75926;SDS011;64605;48.296;16.416;2022-10-31T12:31:58;46.28;;;29.52;;
75926;SDS011;64605;48.296;16.416;2022-10-31T12:37:32;45.75;;;29.25;;
75926;SDS011;64605;48.296;16.416;2022-10-31T13:01:55;43.00;;;27.23;;
75926;SDS011;64605;48.296;16.416;2022-10-31T13:07:30;41.25;;;26.70;;
75926;SDS011;64605;48.296;16.416;2022-10-31T13:13:05;40.60;;;25.45;;
75926;SDS011;64605;48.296;16.416;2022-10-31T13:16:21;38.95;;;24.83;;
75926;SDS011;64605;48.296;16.416;2022-10-31T13:23:58;41.88;;;26.10;;
75926;SDS011;64605;48.296;16.416;2022-10-31T13:31:42;49.88;;;30.02;;
75926;SDS011;64605;48.296;16.416;2022-10-31T13:34:30;52.17;;;31.88;;
75926;SDS011;64605;48.296;16.416;2022-10-31T13:37:14;51.90;;;33.10;;
75926;SDS011;64605;48.296;16.416;2022-10-31T13:44:49;62.97;;;37.17;;
75926;SDS011;64605;48.296;16.416;2022-10-31T13:49:51;65.63;;;38.28;;
75926;SDS011;64605;48.296;16.416;2022-10-31T13:52:29;68.05;;;39.47;;
75926;SDS011;64605;48.296;16.416;2022-10-31T13:54:55;67.30;;;39.78;;
75926;SDS011;64605;48.296;16.416;2022-10-31T13:57:42;67.32;;;38.80;;
75926;SDS011;64605;48.296;16.416;2022-10-31T14:00:23;76.00;;;45.83;;
75926;SDS011;64605;48.296;16.416;2022-10-31T14:02:51;63.13;;;37.13;;
75926;SDS011;64605;48.296;16.416;2022-10-31T14:07:52;65.88;;;39.25;;
75926;SDS011;64605;48.296;16.416;2022-10-31T14:10:25;71.93;;;42.33;;
75926;SDS011;64605;48.296;16.416;2022-10-31T14:12:51;63.72;;;40.17;;
75926;SDS011;64605;48.296;16.416;2022-10-31T14:15:21;71.88;;;39.05;;
75926;SDS011;64605;48.296;16.416;2022-10-31T14:17:53;69.55;;;39.03;;
75926;SDS011;64605;48.296;16.416;2022-10-31T14:23:12;85.20;;;43.08;;
75926;SDS011;64605;48.296;16.416;2022-10-31T14:26:06;76.30;;;42.17;;
75926;SDS011;64605;48.296;16.416;2022-10-31T14:28:47;78.63;;;42.25;;
75926;SDS011;64605;48.296;16.416;2022-10-31T14:31:30;70.55;;;40.58;;
75926;SDS011;64605;48.296;16.416;2022-10-31T14:44:56;72.15;;;39.85;;
75926;SDS011;64605;48.296;16.416;2022-10-31T14:52:51;71.63;;;39.42;;
75926;SDS011;64605;48.296;16.416;2022-10-31T14:55:19;65.70;;;36.60;;
75926;SDS011;64605;48.296;16.416;2022-10-31T14:57:50;64.05;;;37.17;;
75926;SDS011;64605;48.296;16.416;2022-10-31T15:00:21;62.97;;;35.15;;
75926;SDS011;64605;48.296;16.416;2022-10-31T15:07:59;73.45;;;37.92;;
75926;SDS011;64605;48.296;16.416;2022-10-31T15:10:29;75.10;;;39.10;;
75926;SDS011;64605;48.296;16.416;2022-10-31T15:13:08;75.32;;;41.00;;
75926;SDS011;64605;48.296;16.416;2022-10-31T15:15:43;73.53;;;39.88;;
75926;SDS011;64605;48.296;16.416;2022-10-31T15:18:13;77.25;;;42.25;;
75926;SDS011;64605;48.296;16.416;2022-10-31T15:20:42;82.18;;;42.25;;
75926;SDS011;64605;48.296;16.416;2022-10-31T15:23:10;77.60;;;40.95;;
75926;SDS011;64605;48.296;16.416;2022-10-31T15:25:46;82.22;;;42.15;;
75926;SDS011;64605;48.296;16.416;2022-10-31T15:28:13;85.32;;;44.60;;
75926;SDS011;64605;48.296;16.416;2022-10-31T15:30:49;78.75;;;42.22;;
75926;SDS011;64605;48.296;16.416;2022-10-31T15:33:21;83.47;;;43.30;;
75926;SDS011;64605;48.296;16.416;2022-10-31T15:35:58;79.75;;;42.08;;
75926;SDS011;64605;48.296;16.416;2022-10-31T15:38:25;82.85;;;41.38;;
75926;SDS011;64605;48.296;16.416;2022-10-31T15:40:53;76.38;;;40.90;;
75926;SDS011;64605;48.296;16.416;2022-10-31T15:43:30;75.82;;;42.58;;
75926;SDS011;64605;48.296;16.416;2022-10-31T15:46:02;76.43;;;41.50;;
75926;SDS011;64605;48.296;16.416;2022-10-31T15:48:29;81.18;;;44.25;;
75926;SDS011;64605;48.296;16.416;2022-10-31T15:50:59;78.15;;;43.70;;
75926;SDS011;64605;48.296;16.416;2022-10-31T15:53:29;80.60;;;44.20;;
75926;SDS011;64605;48.296;16.416;2022-10-31T15:56:02;81.63;;;43.72;;
75926;SDS011;64605;48.296;16.416;2022-10-31T15:58:50;78.88;;;44.45;;
75926;SDS011;64605;48.296;16.416;2022-10-31T16:01:21;74.38;;;42.90;;
75926;SDS011;64605;48.296;16.416;2022-10-31T16:06:57;70.65;;;40.22;;
75926;SDS011;64605;48.296;16.416;2022-10-31T16:09:53;68.30;;;41.08;;
75926;SDS011;64605;48.296;16.416;2022-10-31T16:12:24;79.10;;;42.45;;
75926;SDS011;64605;48.296;16.416;2022-10-31T16:14:54;73.63;;;41.08;;
75926;SDS011;64605;48.296;16.416;2022-10-31T16:17:21;68.25;;;39.53;;
75926;SDS011;64605;48.296;16.416;2022-10-31T16:19:55;67.43;;;39.92;;
75926;SDS011;64605;48.296;16.416;2022-10-31T16:22:25;69.13;;;39.35;;
75926;SDS011;64605;48.296;16.416;2022-10-31T16:24:55;64.53;;;37.88;;
75926;SDS011;64605;48.296;16.416;2022-10-31T16:27:23;69.38;;;42.08;;
75926;SDS011;64605;48.296;16.416;2022-10-31T16:29:53;74.35;;;41.42;;
75926;SDS011;64605;48.296;16.416;2022-10-31T16:32:25;75.00;;;38.17;;
75926;SDS011;64605;48.296;16.416;2022-10-31T16:37:26;56.80;;;33.35;;
75926;SDS011;64605;48.296;16.416;2022-10-31T16:39:52;64.95;;;35.60;;
75926;SDS011;64605;48.296;16.416;2022-10-31T16:42:18;56.05;;;34.50;;
75926;SDS011;64605;48.296;16.416;2022-10-31T16:44:44;61.08;;;32.45;;
75926;SDS011;64605;48.296;16.416;2022-10-31T16:47:12;61.88;;;33.42;;
75926;SDS011;64605;48.296;16.416;2022-10-31T16:49:40;59.92;;;32.78;;
75926;SDS011;64605;48.296;16.416;2022-10-31T16:52:11;62.45;;;35.63;;
75926;SDS011;64605;48.296;16.416;2022-10-31T16:54:36;99.45;;;63.13;;
75926;SDS011;64605;48.296;16.416;2022-10-31T16:57:02;62.63;;;33.67;;
75926;SDS011;64605;48.296;16.416;2022-10-31T16:59:30;63.72;;;34.08;;
75926;SDS011;64605;48.296;16.416;2022-10-31T17:01:58;58.88;;;32.92;;
75926;SDS011;64605;48.296;16.416;2022-10-31T17:04:24;53.72;;;29.65;;
75926;SDS011;64605;48.296;16.416;2022-10-31T17:06:50;41.75;;;24.42;;
75926;SDS011;64605;48.296;16.416;2022-10-31T17:09:16;42.20;;;28.13;;
75926;SDS011;64605;48.296;16.416;2022-10-31T17:11:46;40.55;;;26.00;;
75926;SDS011;64605;48.296;16.416;2022-10-31T17:14:15;38.47;;;25.55;;
75926;SDS011;64605;48.296;16.416;2022-10-31T17:16:41;42.38;;;24.58;;
75926;SDS011;64605;48.296;16.416;2022-10-31T17:19:09;36.10;;;22.48;;
75926;SDS011;64605;48.296;16.416;2022-10-31T17:21:35;212.38;;;147.00;;